Time;durP1;ratioP1;P1;durP2;ratioP2;P2;SDS_P1;SDS_P2;PMS_P1;PMS_P2;Temp;Humidity;BMP_temperature;BMP_pressure;BME280_temperature;BME280_humidity;BME280_pressure;Samples;Min_cycle;Max_cycle;Signal;HPM_P1;HPM_P2
2024/01/04 00:00:17;;;;;;;9.77;4.90;;;;;;;;;;10227255;28;20023;-80
2024/01/04 00:05:17;;;;;;;9.98;4.45;;;;;;;;;;10247169;28;20023;-79
2024/01/04 00:10:18;;;;;;;9.02;4.85;;;;;;;;;;10248251;28;20442;-82
2024/01/04 00:15:18;;;;;;;7.70;3.75;;;;;;;;;;10246220;29;20053;-80
2024/01/04 00:20:19;;;;;;;8.03;4.50;;;;;;;;;;10230826;28;20391;-80
2024/01/04 00:25:19;;;;;;;11.88;4.13;;;;;;;;;;10315286;23;20148;-74
2024/01/04 00:30:19;;;;;;;8.47;4.10;;;;;;;;;;10422151;28;20019;-74
2024/01/04 00:35:20;;;;;;;9.48;3.90;;;;;;;;;;10421619;28;20013;-73
2024/01/04 00:40:20;;;;;;;11.15;4.55;;;;;;;;;;10421976;28;20299;-73
2024/01/04 00:45:21;;;;;;;8.95;4.45;;;;;;;;;;10404128;28;20018;-73
2024/01/04 00:50:21;;;;;;;8.68;4.32;;;;;;;;;;10421563;28;20018;-73
2024/01/04 00:55:22;;;;;;;10.00;4.15;;;;;;;;;;10403534;28;20274;-73
2024/01/04 01:00:22;;;;;;;8.00;4.35;;;;;;;;;;10421121;28;20079;-73
2024/01/04 01:05:22;;;;;;;11.13;5.05;;;;;;;;;;10421397;28;20036;-73
2024/01/04 01:10:22;;;;;;;18.63;5.55;;;;;;;;;;10420315;28;20043;-73
2024/01/04 01:15:23;;;;;;;9.20;4.70;;;;;;;;;;10420676;28;20017;-73
2024/01/04 01:20:23;;;;;;;16.23;6.70;;;;;;;;;;10420440;28;20180;-73
2024/01/04 01:25:23;;;;;;;13.38;5.85;;;;;;;;;;10419837;28;20098;-74
2024/01/04 01:30:23;;;;;;;16.05;5.95;;;;;;;;;;10420177;28;20028;-73
2024/01/04 01:35:23;;;;;;;11.57;5.10;;;;;;;;;;10419948;28;20341;-72
2024/01/04 01:40:24;;;;;;;12.02;5.85;;;;;;;;;;10418750;28;20091;-72
2024/01/04 01:45:24;;;;;;;15.02;6.90;;;;;;;;;;10419722;28;20029;-73
2024/01/04 01:50:25;;;;;;;19.00;6.68;;;;;;;;;;10419288;28;20427;-73
2024/01/04 01:55:25;;;;;;;12.13;6.82;;;;;;;;;;10401728;28;20033;-73
2024/01/04 02:00:25;;;;;;;8.90;5.90;;;;;;;;;;10418982;28;20211;-73
2024/01/04 02:05:27;;;;;;;12.07;5.43;;;;;;;;;;10419131;28;20295;-73
2024/01/04 02:10:27;;;;;;;12.93;5.55;;;;;;;;;;10418752;28;20249;-74
2024/01/04 02:15:28;;;;;;;10.65;5.07;;;;;;;;;;10418474;28;20029;-73
2024/01/04 02:20:28;;;;;;;14.13;5.65;;;;;;;;;;10401107;28;20093;-73
2024/01/04 02:25:28;;;;;;;9.40;4.93;;;;;;;;;;10417195;28;20381;-74
2024/01/04 02:30:28;;;;;;;10.05;5.55;;;;;;;;;;10417685;28;20319;-73
2024/01/04 02:35:28;;;;;;;11.88;6.75;;;;;;;;;;10410218;28;20310;-73
2024/01/04 02:40:29;;;;;;;33.33;29.75;;;;;;;;;;10416746;28;20041;-73
2024/01/04 02:45:29;;;;;;;9.63;4.60;;;;;;;;;;10416453;28;20033;-73
2024/01/04 02:50:31;;;;;;;10.55;4.38;;;;;;;;;;10416073;28;20208;-74
2024/01/04 02:55:31;;;;;;;8.35;4.18;;;;;;;;;;10416304;28;20029;-73
2024/01/04 03:00:31;;;;;;;12.15;3.90;;;;;;;;;;10398866;28;20316;-73
2024/01/04 03:05:31;;;;;;;5.75;3.83;;;;;;;;;;10415951;28;20028;-73
2024/01/04 03:10:31;;;;;;;9.98;3.65;;;;;;;;;;10416594;28;20345;-74
2024/01/04 03:15:32;;;;;;;7.95;3.83;;;;;;;;;;10412914;28;20033;-73
2024/01/04 03:20:32;;;;;;;6.38;4.05;;;;;;;;;;10416305;28;20037;-73
2024/01/04 03:25:32;;;;;;;6.93;3.85;;;;;;;;;;10413495;28;20227;-73
2024/01/04 03:30:32;;;;;;;8.98;4.13;;;;;;;;;;10399084;23;20045;-76
2024/01/04 03:35:33;;;;;;;7.68;4.15;;;;;;;;;;10363589;28;20021;-76
2024/01/04 03:40:33;;;;;;;12.80;5.57;;;;;;;;;;10349788;28;20507;-77
2024/01/04 03:45:33;;;;;;;16.92;5.22;;;;;;;;;;10326905;28;20044;-79
2024/01/04 03:50:33;;;;;;;13.35;4.85;;;;;;;;;;10329793;28;20029;-80
2024/01/04 03:55:34;;;;;;;13.17;4.67;;;;;;;;;;10344394;28;20030;-80
2024/01/04 04:00:34;;;;;;;14.27;6.23;;;;;;;;;;10341629;28;20065;-78
2024/01/04 04:05:34;;;;;;;10.70;4.68;;;;;;;;;;10325716;28;20554;-76
2024/01/04 04:10:35;;;;;;;10.57;4.60;;;;;;;;;;10336837;28;20405;-77
2024/01/04 04:15:35;;;;;;;12.02;4.55;;;;;;;;;;10331118;28;20447;-77
2024/01/04 04:20:35;;;;;;;6.95;3.53;;;;;;;;;;10352237;28;20034;-83
2024/01/04 04:25:36;;;;;;;12.23;4.03;;;;;;;;;;10365914;28;20025;-82
2024/01/04 04:30:36;;;;;;;10.63;4.35;;;;;;;;;;10336416;28;20120;-79
2024/01/04 04:35:36;;;;;;;10.80;4.15;;;;;;;;;;10352012;28;20447;-80
2024/01/04 04:40:36;;;;;;;15.75;5.18;;;;;;;;;;10345698;28;20029;-78
2024/01/04 04:45:37;;;;;;;4.18;3.20;;;;;;;;;;10345889;28;20033;-78
2024/01/04 04:50:37;;;;;;;8.48;3.45;;;;;;;;;;10348584;28;20025;-78
2024/01/04 04:55:37;;;;;;;10.52;4.35;;;;;;;;;;10344996;28;20033;-81
2024/01/04 05:00:37;;;;;;;7.47;3.47;;;;;;;;;;10360627;28;20343;-80
2024/01/04 05:05:38;;;;;;;6.63;3.35;;;;;;;;;;10320057;28;20030;-76
2024/01/04 05:10:38;;;;;;;4.68;3.38;;;;;;;;;;10346051;28;20041;-75
2024/01/04 05:15:38;;;;;;;9.63;4.18;;;;;;;;;;10312528;28;20451;-78
2024/01/04 05:20:39;;;;;;;5.00;3.08;;;;;;;;;;10353530;28;20025;-76
2024/01/04 05:25:39;;;;;;;7.88;3.47;;;;;;;;;;10343580;28;20026;-76
2024/01/04 05:30:41;;;;;;;8.50;4.32;;;;;;;;;;10361383;28;20064;-80
2024/01/04 05:35:41;;;;;;;7.28;4.18;;;;;;;;;;10360713;28;20057;-77
2024/01/04 05:40:42;;;;;;;8.63;4.75;;;;;;;;;;10334029;28;20136;-79
2024/01/04 05:45:42;;;;;;;8.43;4.13;;;;;;;;;;10342339;28;20033;-77
2024/01/04 05:50:42;;;;;;;6.03;4.05;;;;;;;;;;10346414;28;20036;-76
2024/01/04 05:55:42;;;;;;;6.38;3.83;;;;;;;;;;10345420;28;20026;-76
2024/01/04 06:00:43;;;;;;;10.95;4.28;;;;;;;;;;10333750;28;20020;-76
2024/01/04 06:05:43;;;;;;;11.20;3.90;;;;;;;;;;10360387;28;20026;-77
2024/01/04 06:10:43;;;;;;;7.22;4.00;;;;;;;;;;10342007;28;20026;-76
2024/01/04 06:15:45;;;;;;;7.75;4.53;;;;;;;;;;10338699;28;20112;-75
2024/01/04 06:20:45;;;;;;;9.45;4.85;;;;;;;;;;10340266;28;20522;-75
2024/01/04 06:25:45;;;;;;;9.10;5.93;;;;;;;;;;10341797;28;20025;-76
2024/01/04 06:30:46;;;;;;;11.88;5.88;;;;;;;;;;10345204;28;20539;-79
2024/01/04 06:35:46;;;;;;;7.13;5.03;;;;;;;;;;10363765;28;20472;-76
2024/01/04 06:40:46;;;;;;;9.75;5.72;;;;;;;;;;10344480;28;20028;-75
2024/01/04 06:45:47;;;;;;;12.40;6.30;;;;;;;;;;10344556;28;20026;-76
2024/01/04 06:50:47;;;;;;;9.82;5.10;;;;;;;;;;10361674;28;20037;-76
2024/01/04 06:55:47;;;;;;;10.03;4.73;;;;;;;;;;10343725;28;20489;-73
2024/01/04 07:00:47;;;;;;;9.88;5.47;;;;;;;;;;10361998;28;20273;-80
2024/01/04 07:05:48;;;;;;;9.80;4.57;;;;;;;;;;10343784;28;20033;-77
2024/01/04 07:10:49;;;;;;;12.18;5.97;;;;;;;;;;10359861;28;20022;-74
2024/01/04 07:15:49;;;;;;;13.05;7.07;;;;;;;;;;10344294;28;20052;-79
2024/01/04 07:20:51;;;;;;;11.38;5.18;;;;;;;;;;10361222;28;20047;-79
2024/01/04 07:25:51;;;;;;;12.13;6.57;;;;;;;;;;10360765;28;20407;-77
2024/01/04 07:30:52;;;;;;;11.02;5.68;;;;;;;;;;10343397;28;20064;-75
2024/01/04 07:35:52;;;;;;;20.42;7.78;;;;;;;;;;10342977;28;20030;-74
2024/01/04 07:40:52;;;;;;;14.40;7.47;;;;;;;;;;10344562;28;20552;-75
2024/01/04 07:45:52;;;;;;;10.43;5.25;;;;;;;;;;10343861;28;20025;-76
2024/01/04 07:50:53;;;;;;;10.25;5.88;;;;;;;;;;10361784;28;20037;-76
2024/01/04 07:55:53;;;;;;;13.80;4.60;;;;;;;;;;10343067;28;20029;-77
2024/01/04 08:00:53;;;;;;;15.43;4.85;;;;;;;;;;10358892;28;20108;-76
2024/01/04 08:05:54;;;;;;;17.85;6.70;;;;;;;;;;10343671;28;20026;-76
2024/01/04 08:10:55;;;;;;;9.45;4.88;;;;;;;;;;10342108;28;20112;-81
2024/01/04 08:16:14;;;;;;;15.10;5.40;;;;;;;;;;10361278;28;20026;-76
2024/01/04 08:21:14;;;;;;;9.55;4.28;;;;;;;;;;10345672;28;20484;-77
2024/01/04 08:26:15;;;;;;;13.27;3.47;;;;;;;;;;10367385;28;20030;-76
2024/01/04 08:31:15;;;;;;;9.52;3.80;;;;;;;;;;10366264;28;20546;-76
2024/01/04 08:36:15;;;;;;;14.60;5.53;;;;;;;;;;10366281;28;20026;-77
2024/01/04 08:41:16;;;;;;;36.75;11.45;;;;;;;;;;10350739;28;20253;-81
2024/01/04 08:46:16;;;;;;;17.55;6.85;;;;;;;;;;10348801;28;20512;-78
2024/01/04 08:51:16;;;;;;;43.75;12.73;;;;;;;;;;10349541;28;20025;-77
2024/01/04 08:56:19;;;;;;;21.50;10.10;;;;;;;;;;10348201;28;20026;-77
2024/01/04 09:01:19;;;;;;;28.45;11.55;;;;;;;;;;10347603;28;20093;-76
2024/01/04 09:06:20;;;;;;;17.77;8.23;;;;;;;;;;10348678;28;20044;-80
2024/01/04 09:11:20;;;;;;;20.67;8.98;;;;;;;;;;10365533;28;20025;-75
2024/01/04 09:16:22;;;;;;;21.02;7.90;;;;;;;;;;10347628;28;20488;-78
2024/01/04 09:21:23;;;;;;;18.08;8.15;;;;;;;;;;10349199;28;20103;-78
2024/01/04 09:26:24;;;;;;;13.20;6.80;;;;;;;;;;10364492;28;20058;-75
2024/01/04 09:31:24;;;;;;;13.68;5.15;;;;;;;;;;10363114;28;20041;-76
2024/01/04 09:36:24;;;;;;;7.32;4.07;;;;;;;;;;10362995;28;20519;-77
2024/01/04 09:41:25;;;;;;;9.70;5.32;;;;;;;;;;10363789;28;20026;-78
2024/01/04 09:46:29;;;;;;;18.70;4.85;;;;;;;;;;10346572;28;20114;-76
2024/01/04 09:51:33;;;;;;;4.55;2.92;;;;;;;;;;10361818;28;20064;-75
2024/01/04 09:56:37;;;;;;;12.93;4.30;;;;;;;;;;10347812;28;20421;-77
2024/01/04 10:01:38;;;;;;;8.52;2.97;;;;;;;;;;10357212;28;20022;-79
2024/01/04 10:06:39;;;;;;;4.93;2.75;;;;;;;;;;10345639;28;20029;-75
2024/01/04 10:11:43;;;;;;;8.98;2.75;;;;;;;;;;10362071;28;20543;-77
2024/01/04 10:16:44;;;;;;;8.05;3.88;;;;;;;;;;10361386;28;20492;-82
2024/01/04 10:21:45;;;;;;;36.22;33.53;;;;;;;;;;10345605;28;20026;-77
2024/01/04 10:26:52;;;;;;;51.17;46.97;;;;;;;;;;10344404;28;20058;-76
2024/01/04 10:31:59;;;;;;;10.20;7.28;;;;;;;;;;10344069;28;20834;-76
2024/01/04 10:37:08;;;;;;;6.57;3.00;;;;;;;;;;10357998;28;20034;-77
2024/01/04 10:42:09;;;;;;;10.75;3.75;;;;;;;;;;10343856;28;20026;-82
2024/01/04 10:47:09;;;;;;;12.10;9.55;;;;;;;;;;10360281;28;20026;-76
2024/01/04 10:52:13;;;;;;;7.28;3.45;;;;;;;;;;10362483;28;20026;-79
2024/01/04 10:57:13;;;;;;;184.98;171.90;;;;;;;;;;10353704;28;20133;-76
2024/01/04 11:02:14;;;;;;;129.05;119.57;;;;;;;;;;10344578;28;20068;-76
2024/01/04 11:07:17;;;;;;;105.55;97.80;;;;;;;;;;10348116;28;20253;-77
2024/01/04 11:12:18;;;;;;;22.50;20.52;;;;;;;;;;10363459;28;20034;-76
2024/01/04 11:17:24;;;;;;;220.25;205.80;;;;;;;;;;10357825;28;20416;-78
2024/01/04 11:22:25;;;;;;;237.57;221.70;;;;;;;;;;10364579;28;20421;-72
2024/01/04 11:27:26;;;;;;;657.10;606.67;;;;;;;;;;10373502;28;20033;-75
2024/01/04 11:32:28;;;;;;;53.05;49.08;;;;;;;;;;10361638;28;20050;-76
2024/01/04 11:37:31;;;;;;;8.23;2.67;;;;;;;;;;10345409;28;20814;-77
2024/01/04 11:42:36;;;;;;;87.63;80.68;;;;;;;;;;10345200;28;20038;-77
2024/01/04 11:47:41;;;;;;;44.13;40.65;;;;;;;;;;10348163;28;20773;-79
2024/01/04 11:52:41;;;;;;;13.50;8.20;;;;;;;;;;10348813;28;20101;-77
2024/01/04 11:57:42;;;;;;;33.42;25.60;;;;;;;;;;10348036;28;20048;-77
2024/01/04 12:02:42;;;;;;;77.10;70.03;;;;;;;;;;10351408;28;20029;-76
2024/01/04 12:07:43;;;;;;;12.63;7.50;;;;;;;;;;10367351;28;20021;-78
2024/01/04 12:12:43;;;;;;;17.88;11.20;;;;;;;;;;10354865;28;20033;-75
2024/01/04 12:17:43;;;;;;;10.00;1.48;;;;;;;;;;10375971;28;20560;-79
2024/01/04 12:22:44;;;;;;;5.70;1.58;;;;;;;;;;10357045;28;20409;-77
2024/01/04 12:27:45;;;;;;;53.20;49.58;;;;;;;;;;10349705;28;20465;-77
2024/01/04 12:32:47;;;;;;;495.25;460.15;;;;;;;;;;10317760;23;1155240;-76
2024/01/04 12:38:00;;;;;;;9.80;8.95;;;;;;;;;;10324358;28;20122;-79
2024/01/04 12:43:01;;;;;;;2.90;0.80;;;;;;;;;;10315560;28;20077;-77
2024/01/04 12:48:01;;;;;;;7.03;4.00;;;;;;;;;;10283183;28;20026;-77
2024/01/04 12:53:02;;;;;;;25.90;24.58;;;;;;;;;;10288123;28;20023;-80
2024/01/04 12:58:02;;;;;;;6.77;6.10;;;;;;;;;;10284883;28;20026;-77
2024/01/04 13:03:03;;;;;;;4.77;0.73;;;;;;;;;;10283140;28;20262;-77
2024/01/04 13:08:03;;;;;;;0.60;0.43;;;;;;;;;;10276152;28;20109;-76
2024/01/04 13:13:04;;;;;;;2.28;1.02;;;;;;;;;;10266083;28;20296;-79
2024/01/04 13:18:04;;;;;;;3.22;0.73;;;;;;;;;;10283016;28;20032;-80
2024/01/04 13:23:08;;;;;;;4.07;3.22;;;;;;;;;;10283600;28;20516;-79
2024/01/04 13:28:09;;;;;;;4.50;1.38;;;;;;;;;;10260338;28;20066;-78
2024/01/04 13:33:09;;;;;;;2.92;1.00;;;;;;;;;;10282479;28;20138;-78
2024/01/04 13:38:10;;;;;;;4.65;1.13;;;;;;;;;;10287344;28;20104;-76
2024/01/04 13:43:10;;;;;;;1.83;0.95;;;;;;;;;;10283557;28;20490;-83
2024/01/04 13:48:11;;;;;;;1.70;1.08;;;;;;;;;;10268761;28;20034;-77
2024/01/04 13:53:12;;;;;;;3.15;1.17;;;;;;;;;;10280952;28;20038;-78
2024/01/04 13:58:12;;;;;;;3.78;0.95;;;;;;;;;;10282856;28;20109;-80
2024/01/04 14:03:13;;;;;;;3.25;1.42;;;;;;;;;;10283414;28;20032;-82
2024/01/04 14:08:14;;;;;;;4.53;0.90;;;;;;;;;;10239348;28;20031;-79
2024/01/04 14:13:14;;;;;;;6.18;1.90;;;;;;;;;;10281048;28;20026;-78
2024/01/04 14:18:16;;;;;;;4.97;1.08;;;;;;;;;;10281840;28;20493;-77
2024/01/04 14:23:16;;;;;;;124.95;117.00;;;;;;;;;;10281275;28;20037;-76
2024/01/04 14:28:17;;;;;;;151.60;141.90;;;;;;;;;;10285002;28;20034;-81
2024/01/04 14:33:17;;;;;;;302.40;282.05;;;;;;;;;;10280492;28;20118;-72
2024/01/04 14:38:18;;;;;;;68.10;63.53;;;;;;;;;;10291673;28;20564;-79
2024/01/04 14:43:18;;;;;;;13.40;9.77;;;;;;;;;;10290001;28;20034;-73
2024/01/04 14:48:19;;;;;;;3.67;1.85;;;;;;;;;;10257057;28;20469;-75
2024/01/04 14:53:19;;;;;;;5.40;1.58;;;;;;;;;;10279432;28;20023;-76
2024/01/04 14:58:19;;;;;;;4.72;1.58;;;;;;;;;;10280954;28;20023;-76
2024/01/04 15:03:19;;;;;;;4.05;1.55;;;;;;;;;;10279415;28;20089;-75
2024/01/04 15:08:20;;;;;;;5.18;3.03;;;;;;;;;;10281627;28;20085;-80
2024/01/04 15:13:20;;;;;;;4.07;2.63;;;;;;;;;;10283062;28;20034;-79
2024/01/04 15:18:22;;;;;;;7.10;2.60;;;;;;;;;;10284293;28;20114;-78
2024/01/04 15:23:22;;;;;;;3.47;1.88;;;;;;;;;;10278714;28;20019;-77
2024/01/04 15:28:22;;;;;;;6.13;2.17;;;;;;;;;;10258963;28;20504;-77
2024/01/04 15:33:22;;;;;;;4.68;1.88;;;;;;;;;;10279406;28;20464;-80
2024/01/04 15:38:23;;;;;;;10.93;6.13;;;;;;;;;;10284900;23;20069;-77
2024/01/04 15:43:23;;;;;;;6.03;3.85;;;;;;;;;;10326213;28;20026;-77
2024/01/04 15:48:25;;;;;;;3.90;1.58;;;;;;;;;;10326057;28;20372;-79
2024/01/04 15:53:25;;;;;;;3.33;1.40;;;;;;;;;;10344098;28;20320;-78
2024/01/04 15:58:25;;;;;;;1.63;1.10;;;;;;;;;;10326537;28;20081;-77
2024/01/04 16:03:26;;;;;;;2.63;1.58;;;;;;;;;;10326354;28;20212;-77
2024/01/04 16:08:26;;;;;;;1.23;0.85;;;;;;;;;;10342757;28;20019;-76
2024/01/04 16:13:27;;;;;;;1.90;1.30;;;;;;;;;;10343298;28;20014;-76
2024/01/04 16:18:28;;;;;;;1.80;1.23;;;;;;;;;;10342776;28;20038;-85
2024/01/04 16:23:29;;;;;;;1.70;1.30;;;;;;;;;;10343846;28;20021;-77
2024/01/04 16:28:30;;;;;;;2.97;1.63;;;;;;;;;;10342298;28;20026;-78
2024/01/04 16:33:30;;;;;;;5.05;1.48;;;;;;;;;;10342691;28;20423;-76
2024/01/04 16:38:30;;;;;;;6.13;3.03;;;;;;;;;;10340161;28;20046;-77
2024/01/04 16:43:31;;;;;;;4.07;1.60;;;;;;;;;;10339137;28;20026;-78
2024/01/04 16:48:31;;;;;;;2.95;2.10;;;;;;;;;;10321230;28;20030;-81
2024/01/04 16:53:31;;;;;;;6.53;3.00;;;;;;;;;;10323698;28;20272;-78
2024/01/04 16:58:31;;;;;;;5.85;2.88;;;;;;;;;;10345912;28;20045;-81
2024/01/04 17:03:31;;;;;;;3.25;2.35;;;;;;;;;;10343001;28;20018;-79
2024/01/04 17:08:32;;;;;;;5.93;2.97;;;;;;;;;;10341446;28;20041;-78
2024/01/04 17:13:35;;;;;;;5.57;2.43;;;;;;;;;;10337557;28;20049;-78
2024/01/04 17:18:35;;;;;;;3.95;2.30;;;;;;;;;;10322764;28;20319;-79
2024/01/04 17:23:36;;;;;;;2.85;2.00;;;;;;;;;;10323154;28;20029;-79
2024/01/04 17:28:39;;;;;;;2.77;2.17;;;;;;;;;;10339410;28;20022;-78
2024/01/04 17:33:39;;;;;;;4.47;2.25;;;;;;;;;;10339598;28;20033;-78
2024/01/04 17:38:39;;;;;;;4.73;2.13;;;;;;;;;;10338545;28;20137;-77
2024/01/04 17:43:40;;;;;;;3.30;2.03;;;;;;;;;;10339468;28;20200;-77
2024/01/04 17:48:40;;;;;;;3.20;1.90;;;;;;;;;;10310373;28;20271;-77
2024/01/04 17:53:40;;;;;;;4.75;1.83;;;;;;;;;;10334570;28;20474;-77
2024/01/04 17:58:40;;;;;;;5.43;2.10;;;;;;;;;;10335114;28;20208;-77
2024/01/04 18:03:43;;;;;;;32.17;28.93;;;;;;;;;;10337117;28;20203;-76
2024/01/04 18:08:43;;;;;;;38.67;36.10;;;;;;;;;;10337872;28;20291;-77
2024/01/04 18:13:43;;;;;;;40.58;38.08;;;;;;;;;;10337596;28;20255;-76
2024/01/04 18:18:43;;;;;;;7.57;4.43;;;;;;;;;;10337783;28;20022;-76
2024/01/04 18:23:44;;;;;;;8.80;5.03;;;;;;;;;;10337926;28;20343;-77
2024/01/04 18:28:45;;;;;;;33.38;31.02;;;;;;;;;;10337095;28;20045;-77
2024/01/04 18:33:45;;;;;;;6.93;3.30;;;;;;;;;;10336770;28;20374;-77
2024/01/04 18:38:45;;;;;;;29.50;26.92;;;;;;;;;;10336620;28;20586;-76
2024/01/04 18:43:45;;;;;;;6.22;3.58;;;;;;;;;;10336737;28;20355;-76
2024/01/04 18:48:46;;;;;;;6.03;3.20;;;;;;;;;;10337031;28;20019;-77
2024/01/04 18:53:46;;;;;;;10.02;3.25;;;;;;;;;;10337134;28;20144;-77
2024/01/04 18:58:46;;;;;;;4.88;3.50;;;;;;;;;;10336485;28;20011;-76
2024/01/04 19:03:47;;;;;;;5.90;3.97;;;;;;;;;;10334424;28;20054;-85
2024/01/04 19:08:47;;;;;;;8.38;2.97;;;;;;;;;;10319260;28;20038;-78
2024/01/04 19:13:47;;;;;;;4.10;2.90;;;;;;;;;;10315749;28;20304;-78
2024/01/04 19:18:48;;;;;;;4.85;2.75;;;;;;;;;;10326315;28;20094;-84
2024/01/04 19:23:48;;;;;;;15.13;2.95;;;;;;;;;;10315937;28;20021;-81
2024/01/04 19:28:48;;;;;;;6.57;2.70;;;;;;;;;;10327208;28;20316;-79
2024/01/04 19:33:49;;;;;;;5.70;2.80;;;;;;;;;;10311466;28;20030;-81
2024/01/04 19:38:50;;;;;;;26.15;22.52;;;;;;;;;;10319062;28;20047;-80
2024/01/04 19:43:50;;;;;;;6.55;2.17;;;;;;;;;;10318501;28;20038;-81
2024/01/04 19:48:51;;;;;;;3.60;2.60;;;;;;;;;;10312912;28;20285;-83
2024/01/04 19:53:51;;;;;;;4.53;2.80;;;;;;;;;;10315485;28;20014;-77
2024/01/04 19:58:52;;;;;;;4.95;2.80;;;;;;;;;;10309491;28;20092;-78
2024/01/04 20:03:53;;;;;;;18.15;9.18;;;;;;;;;;10309414;28;20315;-79
2024/01/04 20:08:53;;;;;;;19.65;9.80;;;;;;;;;;10303768;28;20060;-78
2024/01/04 20:13:54;;;;;;;21.33;17.13;;;;;;;;;;10315299;28;20015;-78
2024/01/04 20:18:54;;;;;;;23.63;17.03;;;;;;;;;;10315417;28;20042;-79
2024/01/04 20:23:54;;;;;;;19.30;10.20;;;;;;;;;;10322609;28;20010;-80
2024/01/04 20:28:54;;;;;;;18.83;10.40;;;;;;;;;;10324469;28;20015;-80
2024/01/04 20:33:55;;;;;;;24.25;12.30;;;;;;;;;;10323522;28;20316;-79
2024/01/04 20:38:55;;;;;;;25.25;13.98;;;;;;;;;;10319702;28;20042;-80
2024/01/04 20:43:55;;;;;;;36.03;13.52;;;;;;;;;;10302759;28;20230;-80
2024/01/04 20:48:56;;;;;;;26.15;13.63;;;;;;;;;;10312839;28;20315;-83
2024/01/04 20:53:57;;;;;;;26.70;12.75;;;;;;;;;;10324377;28;20041;-85
2024/01/04 20:58:57;;;;;;;39.95;26.52;;;;;;;;;;10308504;28;20212;-78
2024/01/04 21:03:57;;;;;;;29.45;13.68;;;;;;;;;;10324374;28;20022;-81
2024/01/04 21:08:57;;;;;;;27.58;21.65;;;;;;;;;;10314661;28;20182;-81
2024/01/04 21:14:21;;;;;;;27.50;13.32;;;;;;;;;;10355237;28;20029;-91
2024/01/04 21:19:21;;;;;;;27.58;13.45;;;;;;;;;;10323378;28;20046;-93
2024/01/04 21:24:23;;;;;;;212.10;196.57;;;;;;;;;;10326800;28;20300;-81
2024/01/04 21:29:23;;;;;;;236.38;221.70;;;;;;;;;;10342944;28;20022;-82
2024/01/04 21:34:24;;;;;;;162.00;150.50;;;;;;;;;;10344222;28;20022;-78
2024/01/04 21:39:24;;;;;;;247.02;224.10;;;;;;;;;;10353671;28;20098;-81
2024/01/04 21:44:25;;;;;;;320.30;286.13;;;;;;;;;;10344840;28;20212;-80
2024/01/04 21:49:27;;;;;;;67.28;60.42;;;;;;;;;;10328625;28;20011;-80
2024/01/04 21:54:28;;;;;;;251.30;232.35;;;;;;;;;;10331705;28;20022;-79
2024/01/04 21:59:28;;;;;;;33.55;23.63;;;;;;;;;;10341821;28;20014;-79
2024/01/04 22:04:28;;;;;;;98.13;90.93;;;;;;;;;;10341063;28;20029;-80
2024/01/04 22:09:30;;;;;;;171.48;160.45;;;;;;;;;;10342651;28;20102;-80
2024/01/04 22:14:30;;;;;;;106.43;99.07;;;;;;;;;;10353937;28;20022;-81
2024/01/04 22:19:31;;;;;;;25.75;12.68;;;;;;;;;;10319631;28;20252;-82
2024/01/04 22:24:31;;;;;;;23.52;13.65;;;;;;;;;;10343630;28;20312;-82
2024/01/04 22:29:32;;;;;;;22.63;11.38;;;;;;;;;;10343131;28;20590;-79
2024/01/04 22:34:32;;;;;;;24.40;12.35;;;;;;;;;;10341027;28;20236;-79
2024/01/04 22:39:32;;;;;;;24.43;11.97;;;;;;;;;;10336296;28;20062;-78
2024/01/04 22:44:33;;;;;;;151.80;141.32;;;;;;;;;;10335759;28;20080;-77
2024/01/04 22:49:33;;;;;;;25.70;17.27;;;;;;;;;;10336540;28;20057;-78
2024/01/04 22:54:33;;;;;;;120.95;112.60;;;;;;;;;;10337333;28;20018;-77
2024/01/04 22:59:34;;;;;;;162.93;151.82;;;;;;;;;;10336226;28;20017;-77
2024/01/04 23:04:34;;;;;;;268.63;239.57;;;;;;;;;;10335529;28;20014;-77
2024/01/04 23:09:35;;;;;;;131.98;123.65;;;;;;;;;;10335694;28;20211;-76
2024/01/04 23:14:35;;;;;;;24.90;16.17;;;;;;;;;;10336089;28;20033;-76
2024/01/04 23:19:37;;;;;;;21.60;12.20;;;;;;;;;;10336431;28;20044;-77
2024/01/04 23:24:41;;;;;;;24.92;11.40;;;;;;;;;;10335795;28;20343;-77
2024/01/04 23:29:41;;;;;;;26.48;13.05;;;;;;;;;;10304862;28;20155;-78
2024/01/04 23:34:42;;;;;;;20.40;10.80;;;;;;;;;;10336048;28;20045;-79
2024/01/04 23:39:42;;;;;;;22.48;10.38;;;;;;;;;;10322428;28;20328;-78
2024/01/04 23:44:42;;;;;;;22.95;18.45;;;;;;;;;;10336602;28;20015;-78
2024/01/04 23:49:43;;;;;;;21.00;12.60;;;;;;;;;;10337548;28;20030;-78
2024/01/04 23:54:43;;;;;;;17.35;15.35;;;;;;;;;;10343795;28;20216;-78
2024/01/04 23:59:43;;;;;;;18.35;10.32;;;;;;;;;;10343562;28;20305;-78
